Time;durP1;ratioP1;P1;durP2;ratioP2;P2;SDS_P1;SDS_P2;PMS_P1;PMS_P2;Temp;Humidity;BMP_temperature;BMP_pressure;BME280_temperature;BME280_humidity;BME280_pressure;Samples;Min_cycle;Max_cycle;Signal;HPM_P1;HPM_P2
2020/12/19 00:02:10;;;;;;;34.27;11.83;;;;;;;15.13;57.40;155093.92;1798758;78;21431;-71
2020/12/19 00:04:45;;;;;;;34.38;12.58;;;;;;;15.03;57.53;155067.63;1796923;78;21324;-72
2020/12/19 00:07:19;;;;;;;28.40;11.03;;;;;;;15.05;57.67;155074.19;1797668;79;21894;-72
2020/12/19 00:09:52;;;;;;;31.30;12.07;;;;;;;15.05;57.64;155072.83;1796911;79;21175;-72
2020/12/19 00:12:25;;;;;;;33.98;12.35;;;;;;;15.05;57.78;155072.83;1798603;78;21163;-73
2020/12/19 00:14:57;;;;;;;40.08;13.20;;;;;;;15.00;57.71;155061.00;1797999;78;21364;-71
2020/12/19 00:17:30;;;;;;;34.33;13.43;;;;;;;14.96;57.88;155049.16;1799065;79;21369;-73
2020/12/19 00:20:03;;;;;;;38.80;13.30;;;;;;;14.94;57.92;155045.22;1797593;78;21435;-72
2020/12/19 00:22:36;;;;;;;36.70;13.40;;;;;;;14.87;57.91;155026.78;1798554;78;21703;-73
2020/12/19 00:25:09;;;;;;;37.38;14.00;;;;;;;14.77;58.10;155000.47;1797754;79;21312;-71
2020/12/19 00:27:41;;;;;;;34.67;14.23;;;;;;;14.78;58.58;155001.81;1798763;78;21650;-72
2020/12/19 00:30:14;;;;;;;32.42;13.58;;;;;;;14.78;58.56;155003.11;1799144;78;22153;-71
2020/12/19 00:32:46;;;;;;;35.15;12.60;;;;;;;14.82;58.56;155013.64;1798946;78;21427;-72
2020/12/19 00:35:20;;;;;;;36.23;14.43;;;;;;;14.92;58.26;155038.66;1799056;78;21320;-71
2020/12/19 00:37:52;;;;;;;31.50;12.10;;;;;;;14.96;58.15;155049.16;1798259;78;21812;-70
2020/12/19 00:40:25;;;;;;;38.75;14.65;;;;;;;14.90;58.27;155034.69;1800276;78;21340;-72
2020/12/19 00:42:57;;;;;;;36.00;16.15;;;;;;;15.48;57.33;155187.42;1798658;78;21380;-70
2020/12/19 00:45:30;;;;;;;34.83;14.20;;;;;;;15.62;56.75;155225.59;1798908;78;21860;-70
2020/12/19 00:48:03;;;;;;;36.58;15.63;;;;;;;15.60;56.71;155220.36;1799822;78;21321;-72
2020/12/19 00:50:36;;;;;;;35.60;14.93;;;;;;;15.57;56.70;155211.11;1798159;79;21183;-71
2020/12/19 00:53:09;;;;;;;40.35;15.10;;;;;;;15.62;56.50;155225.59;1800044;78;21409;-70
2020/12/19 00:55:41;;;;;;;33.85;13.45;;;;;;;15.60;56.56;155220.36;1798382;78;21839;-71
2020/12/19 00:58:14;;;;;;;37.67;13.58;;;;;;;15.63;56.55;155228.23;1797202;79;21208;-70
2020/12/19 01:00:46;;;;;;;39.75;17.02;;;;;;;15.66;56.54;155236.14;1796652;78;21879;-72
2020/12/19 01:03:19;;;;;;;35.30;16.00;;;;;;;15.69;56.27;155244.06;1797253;78;21732;-71
2020/12/19 01:05:51;;;;;;;35.88;15.53;;;;;;;15.66;56.27;155234.84;1798047;79;21356;-70
2020/12/19 01:08:25;;;;;;;41.15;16.87;;;;;;;15.38;56.58;155159.80;1798813;78;21444;-70
2020/12/19 01:10:58;;;;;;;36.77;16.25;;;;;;;14.99;57.66;155058.36;1798383;78;21628;-70
2020/12/19 01:13:31;;;;;;;37.75;16.90;;;;;;;14.94;57.73;155045.22;1799263;78;21964;-72
2020/12/19 01:16:04;;;;;;;39.33;16.60;;;;;;;14.89;57.75;155032.05;1799405;79;21233;-72
2020/12/19 01:18:37;;;;;;;34.33;15.38;;;;;;;14.84;57.79;155017.58;1798730;79;21214;-71
2020/12/19 01:21:15;;;;;;;32.35;14.15;;;;;;;14.78;57.88;155001.81;1797031;79;21186;-71
2020/12/19 01:23:49;;;;;;;33.98;14.93;;;;;;;14.71;58.03;154983.36;1797910;79;21788;-70
2020/12/19 01:26:22;;;;;;;34.60;13.98;;;;;;;14.60;58.20;154954.41;1799090;78;21364;-71
2020/12/19 01:28:55;;;;;;;34.67;13.95;;;;;;;14.51;58.40;154932.09;1799445;78;21171;-70
2020/12/19 01:31:28;;;;;;;37.80;13.53;;;;;;;14.48;58.52;154924.19;1797223;78;21183;-68
2020/12/19 01:34:01;;;;;;;32.65;13.90;;;;;;;14.82;57.94;155013.64;1793542;80;21206;-70
2020/12/19 01:36:33;;;;;;;32.60;12.98;;;;;;;14.84;57.81;155018.91;1793768;78;21694;-71
2020/12/19 01:39:06;;;;;;;40.88;14.95;;;;;;;14.87;57.80;155026.78;1794191;80;21879;-70
2020/12/19 01:41:39;;;;;;;40.12;15.08;;;;;;;14.44;58.57;154912.36;1793722;80;21207;-72
2020/12/19 01:44:11;;;;;;;41.80;16.27;;;;;;;14.39;58.69;154897.89;1793878;80;21693;-70
2020/12/19 01:47:01;;;;;;;36.73;16.67;;;;;;;14.39;58.70;154899.19;1794292;80;21178;-70
2020/12/19 01:49:34;;;;;;;43.10;18.42;;;;;;;14.35;58.80;154888.64;1749461;80;21309;-70
2020/12/19 01:52:07;;;;;;;39.20;17.62;;;;;;;14.33;58.90;154883.42;1772388;80;21360;-70
2020/12/19 01:54:41;;;;;;;46.05;18.98;;;;;;;14.35;58.95;154888.64;1794041;80;21364;-70
2020/12/19 01:57:14;;;;;;;47.73;19.52;;;;;;;14.34;59.09;154886.06;1790881;80;21215;-69
2020/12/19 01:59:46;;;;;;;41.83;18.10;;;;;;;14.37;59.17;154892.62;1783456;80;21216;-69
2020/12/19 02:02:20;;;;;;;44.33;19.90;;;;;;;14.43;59.32;154908.38;1792624;78;21280;-69
2020/12/19 02:04:54;;;;;;;42.88;18.50;;;;;;;14.45;59.36;154916.28;1782459;80;21812;-69
2020/12/19 02:07:26;;;;;;;44.70;19.70;;;;;;;14.50;59.14;154928.13;1795678;79;21301;-69
2020/12/19 02:09:58;;;;;;;40.10;19.07;;;;;;;14.50;59.15;154928.13;1795838;80;21278;-69
2020/12/19 02:12:31;;;;;;;49.75;20.82;;;;;;;14.51;59.14;154932.09;1771561;80;21802;-67
2020/12/19 02:15:03;;;;;;;48.70;21.40;;;;;;;14.53;59.03;154937.31;1791997;80;21336;-68
2020/12/19 02:17:36;;;;;;;46.83;20.55;;;;;;;14.57;58.89;154947.86;1772618;80;21210;-67
2020/12/19 02:20:08;;;;;;;51.15;19.92;;;;;;;14.41;59.08;154903.16;1792908;80;21280;-68
2020/12/19 02:22:41;;;;;;;47.50;21.30;;;;;;;14.44;59.13;154912.36;1790432;80;21257;-68
2020/12/19 02:25:13;;;;;;;44.75;20.20;;;;;;;14.59;58.97;154951.78;1795972;80;21247;-67
2020/12/19 02:27:45;;;;;;;40.80;19.10;;;;;;;14.63;58.75;154962.31;1794773;80;21169;-67
2020/12/19 02:30:18;;;;;;;41.42;18.57;;;;;;;14.62;58.65;154961.03;1795480;79;21234;-68
2020/12/19 02:32:50;;;;;;;44.65;17.70;;;;;;;14.64;58.71;154964.97;1778008;78;21211;-67
2020/12/19 02:35:23;;;;;;;43.33;19.12;;;;;;;14.65;58.70;154967.59;1771330;81;21188;-67
2020/12/19 02:37:56;;;;;;;39.63;17.75;;;;;;;14.70;58.57;154980.72;1784198;79;21209;-69
2020/12/19 02:40:29;;;;;;;41.33;16.45;;;;;;;14.71;58.66;154984.70;1797147;79;21336;-68
2020/12/19 02:43:01;;;;;;;35.73;16.00;;;;;;;14.79;58.64;155005.73;1803429;79;21398;-68
2020/12/19 02:45:34;;;;;;;35.23;15.40;;;;;;;14.68;58.91;154976.80;1803897;79;21344;-68
2020/12/19 02:48:06;;;;;;;39.73;17.90;;;;;;;14.72;58.90;154986.00;1803992;79;21296;-67
2020/12/19 02:50:39;;;;;;;37.58;17.65;;;;;;;14.77;58.71;154999.17;1803044;79;21338;-67
2020/12/19 02:53:12;;;;;;;34.92;15.53;;;;;;;14.79;58.58;155004.44;1804001;79;21158;-68
2020/12/19 02:55:45;;;;;;;36.38;15.75;;;;;;;14.79;58.46;155004.44;1803177;79;21292;-68
2020/12/19 02:58:17;;;;;;;33.90;14.95;;;;;;;14.88;58.27;155028.12;1804372;79;21317;-68
2020/12/19 03:00:50;;;;;;;33.80;15.55;;;;;;;14.81;58.17;155011.00;1798581;79;21364;-69
2020/12/19 03:03:22;;;;;;;30.97;13.45;;;;;;;14.67;58.43;154972.88;1794419;79;21214;-68
2020/12/19 03:05:55;;;;;;;32.30;13.55;;;;;;;14.65;58.51;154968.89;1804427;79;21301;-67
2020/12/19 03:08:28;;;;;;;30.92;11.93;;;;;;;14.81;58.44;155011.00;1799928;79;21143;-69
2020/12/19 03:11:02;;;;;;;27.95;11.65;;;;;;;14.85;58.25;155020.20;1786147;79;21202;-68
2020/12/19 03:13:34;;;;;;;29.85;11.97;;;;;;;14.67;58.48;154974.16;1803431;79;21313;-67
2020/12/19 03:16:07;;;;;;;28.07;11.57;;;;;;;14.61;58.56;154957.05;1788236;79;21163;-67
2020/12/19 03:18:39;;;;;;;29.12;11.50;;;;;;;14.65;58.58;154967.59;1804330;79;21198;-67
2020/12/19 03:21:12;;;;;;;27.62;12.10;;;;;;;14.63;58.68;154962.31;1791132;78;21309;-68
2020/12/19 03:23:44;;;;;;;31.55;12.50;;;;;;;14.64;58.57;154966.25;1792787;79;21178;-68
2020/12/19 03:26:17;;;;;;;31.77;14.00;;;;;;;14.58;58.67;154950.50;1795946;79;21332;-68
2020/12/19 03:28:49;;;;;;;26.60;11.00;;;;;;;14.56;58.72;154945.22;1794692;79;21681;-67
2020/12/19 03:31:22;;;;;;;28.60;12.15;;;;;;;14.72;58.44;154986.00;1804141;79;21297;-68
2020/12/19 03:33:54;;;;;;;27.95;11.08;;;;;;;14.62;58.62;154959.69;1793183;79;21666;-67
2020/12/19 03:36:27;;;;;;;25.37;11.43;;;;;;;14.74;58.49;154991.27;1800348;79;21297;-67
2020/12/19 03:39:00;;;;;;;30.23;11.78;;;;;;;14.61;58.57;154957.05;1801076;79;21162;-67
2020/12/19 03:41:33;;;;;;;25.45;11.03;;;;;;;14.63;58.67;154963.67;1800827;79;21309;-67
2020/12/19 03:44:05;;;;;;;29.95;12.50;;;;;;;14.76;58.54;154996.53;1801092;79;21202;-67
2020/12/19 03:46:38;;;;;;;33.88;12.37;;;;;;;14.78;58.37;155001.81;1801419;78;21308;-67
2020/12/19 03:49:10;;;;;;;30.25;11.45;;;;;;;14.66;58.39;154971.52;1800887;78;21681;-68
2020/12/19 03:51:42;;;;;;;28.90;11.70;;;;;;;14.64;58.44;154964.97;1796737;79;21194;-67
2020/12/19 03:54:15;;;;;;;25.35;11.50;;;;;;;14.63;58.50;154962.31;1773904;79;21301;-69
2020/12/19 03:56:47;;;;;;;26.20;12.10;;;;;;;14.63;58.57;154962.31;1769572;81;21800;-67
2020/12/19 03:59:21;;;;;;;25.82;10.35;;;;;;;14.58;58.60;154950.50;1777948;80;21321;-67
2020/12/19 04:01:53;;;;;;;32.30;11.73;;;;;;;14.57;58.67;154946.56;1801237;78;21341;-67
2020/12/19 04:04:26;;;;;;;27.45;10.35;;;;;;;14.60;58.67;154955.77;1799789;79;21737;-69
2020/12/19 04:07:02;;;;;;;20.23;10.50;;;;;;;14.63;58.67;154963.67;1769026;81;21182;-67
2020/12/19 04:09:35;;;;;;;29.72;12.20;;;;;;;14.69;58.69;154978.14;1791385;79;21626;-67
2020/12/19 04:12:08;;;;;;;23.38;10.45;;;;;;;14.82;58.50;155013.64;1800770;80;21737;-67
2020/12/19 04:14:41;;;;;;;27.95;10.98;;;;;;;14.77;58.67;154999.17;1789567;79;21222;-67
2020/12/19 04:17:13;;;;;;;22.48;10.45;;;;;;;14.85;58.58;155020.20;1801330;79;21147;-68
2020/12/19 04:19:46;;;;;;;30.97;11.80;;;;;;;14.89;58.60;155030.75;1779851;79;21362;-68
2020/12/19 04:22:19;;;;;;;26.20;11.22;;;;;;;14.92;58.44;155038.66;1766542;79;21174;-68
2020/12/19 04:24:51;;;;;;;28.85;12.28;;;;;;;14.93;58.34;155041.30;1766050;81;21800;-68
2020/12/19 04:27:24;;;;;;;26.77;11.10;;;;;;;14.90;58.32;155034.69;1754144;81;21190;-68
2020/12/19 04:29:56;;;;;;;25.50;11.55;;;;;;;14.89;58.21;155032.05;1751136;82;21868;-68
2020/12/19 04:32:29;;;;;;;29.10;12.15;;;;;;;14.91;58.20;155036.03;1742721;82;21321;-68
2020/12/19 04:35:01;;;;;;;31.40;13.00;;;;;;;14.93;58.39;155041.30;1757204;81;21143;-68
2020/12/19 04:37:33;;;;;;;26.10;11.83;;;;;;;15.01;58.30;155062.34;1768563;80;21186;-68
2020/12/19 04:40:06;;;;;;;28.23;12.82;;;;;;;15.05;58.39;155072.83;1768172;81;21230;-68
2020/12/19 04:42:39;;;;;;;27.13;12.37;;;;;;;15.16;58.36;155101.84;1768609;80;21186;-65
2020/12/19 04:45:11;;;;;;;30.27;12.20;;;;;;;15.25;58.19;155126.86;1740089;81;21713;-65
2020/12/19 04:47:43;;;;;;;27.95;12.20;;;;;;;15.25;58.01;155125.56;1736015;81;21174;-65
2020/12/19 04:50:16;;;;;;;34.08;13.55;;;;;;;15.26;57.97;155128.20;1731942;81;21328;-66
2020/12/19 04:52:48;;;;;;;27.40;11.97;;;;;;;15.24;57.83;155124.17;1725980;81;21182;-66
2020/12/19 04:55:20;;;;;;;28.12;12.55;;;;;;;15.23;57.87;155121.53;1723070;82;21670;-65
2020/12/19 04:57:53;;;;;;;28.38;12.00;;;;;;;15.27;57.96;155132.14;1761107;81;21763;-65
2020/12/19 05:00:25;;;;;;;31.15;12.82;;;;;;;15.30;57.92;155138.70;1759740;81;21719;-66
2020/12/19 05:02:58;;;;;;;26.37;13.22;;;;;;;15.31;57.82;155141.34;1717596;82;21175;-65
2020/12/19 05:05:30;;;;;;;26.30;12.03;;;;;;;15.30;57.83;155140.05;1717421;83;21333;-65
2020/12/19 05:08:02;;;;;;;25.95;12.98;;;;;;;15.35;57.87;155151.89;1689736;85;21265;-68
2020/12/19 05:10:35;;;;;;;23.87;11.48;;;;;;;15.39;57.66;155163.73;1697193;82;21192;-66
2020/12/19 05:13:09;;;;;;;24.87;11.43;;;;;;;15.38;57.59;155159.80;1717328;83;21250;-64
2020/12/19 05:15:41;;;;;;;23.67;11.18;;;;;;;15.34;57.57;155150.55;1719267;82;21337;-63
2020/12/19 05:18:14;;;;;;;26.00;11.25;;;;;;;15.35;57.53;155151.89;1715498;82;21409;-63
2020/12/19 05:20:46;;;;;;;27.42;11.70;;;;;;;15.36;57.50;155155.81;1697038;83;21344;-63
2020/12/19 05:23:19;;;;;;;22.75;10.98;;;;;;;15.30;57.41;155138.70;1727226;82;21184;-64
2020/12/19 05:25:51;;;;;;;22.05;11.08;;;;;;;15.22;57.54;155117.61;1745544;81;21318;-63
2020/12/19 05:28:24;;;;;;;27.35;12.20;;;;;;;15.22;57.64;155117.61;1720421;82;21894;-63
2020/12/19 05:30:59;;;;;;;21.45;10.72;;;;;;;15.18;57.57;155108.41;1717761;82;21787;-63
2020/12/19 05:33:41;;;;;;;24.77;10.43;;;;;;;15.13;57.68;155093.92;1716422;82;21769;-63
2020/12/19 05:36:21;;;;;;;26.23;12.65;;;;;;;15.11;57.57;155089.94;1719549;82;21207;-62
2020/12/19 05:39:02;;;;;;;33.58;16.05;;;;;;;15.02;57.74;155064.97;1723247;82;21856;-66
2020/12/19 05:41:39;;;;;;;34.50;16.65;;;;;;;14.93;57.88;155042.59;1712213;82;21814;-66
2020/12/19 05:44:13;;;;;;;36.60;16.45;;;;;;;14.91;57.95;155036.03;1728470;82;21191;-66
2020/12/19 05:46:45;;;;;;;37.55;17.60;;;;;;;14.85;57.96;155020.20;1729708;82;21414;-65
2020/12/19 05:49:18;;;;;;;41.30;18.65;;;;;;;14.83;58.02;155016.28;1701959;82;21376;-67
2020/12/19 05:51:50;;;;;;;32.88;16.50;;;;;;;14.87;58.16;155026.78;1731106;82;21181;-65
2020/12/19 05:54:23;;;;;;;34.78;15.30;;;;;;;14.95;58.21;155046.52;1728070;83;21185;-65
2020/12/19 05:56:55;;;;;;;33.00;14.98;;;;;;;15.01;58.09;155062.34;1720737;82;21241;-67
2020/12/19 05:59:28;;;;;;;28.02;12.98;;;;;;;14.97;57.95;155051.80;1719883;82;21364;-67
2020/12/19 06:02:01;;;;;;;28.25;11.22;;;;;;;14.88;57.90;155029.41;1708902;82;21684;-66
2020/12/19 06:04:33;;;;;;;26.25;10.85;;;;;;;14.78;58.05;155003.11;1728235;82;21313;-66
2020/12/19 06:07:05;;;;;;;23.35;10.98;;;;;;;14.73;58.14;154988.63;1723538;82;21703;-66
2020/12/19 06:09:40;;;;;;;22.60;10.63;;;;;;;14.68;58.17;154976.80;1729892;82;21189;-66
2020/12/19 06:12:16;;;;;;;21.55;10.85;;;;;;;14.67;58.20;154974.16;1716416;83;21207;-66
2020/12/19 06:14:50;;;;;;;22.42;10.78;;;;;;;14.68;58.39;154975.50;1705385;83;21211;-66
2020/12/19 06:17:48;;;;;;;21.95;10.25;;;;;;;14.75;58.47;154993.91;1707748;84;21329;-66
2020/12/19 06:20:21;;;;;;;27.60;11.55;;;;;;;14.92;58.17;155039.95;1757423;80;21163;-65
2020/12/19 06:22:53;;;;;;;26.23;11.30;;;;;;;14.93;58.31;155041.30;1751598;81;21249;-66
2020/12/19 06:25:48;;;;;;;32.00;10.82;;;;;;;14.92;58.11;155039.95;1765094;81;21181;-66
2020/12/19 06:28:45;;;;;;;32.53;11.70;;;;;;;14.94;58.13;155043.89;1756857;81;21316;-66
2020/12/19 06:31:22;;;;;;;22.77;10.23;;;;;;;14.99;58.13;155057.06;1736264;81;21329;-66
2020/12/19 06:33:55;;;;;;;25.32;11.43;;;;;;;15.01;58.02;155062.34;1752126;81;21196;-66
2020/12/19 06:36:29;;;;;;;27.82;11.85;;;;;;;14.98;57.99;155054.44;1751867;82;21216;-66
2020/12/19 06:39:12;;;;;;;27.25;11.85;;;;;;;14.93;57.94;155042.59;1787092;78;21270;-65
2020/12/19 06:41:58;;;;;;;24.47;12.33;;;;;;;14.97;57.91;155051.80;1800955;79;21156;-65
2020/12/19 06:44:27;;;;;;;22.98;10.43;;;;;;;14.89;57.84;155030.75;1800991;79;21187;-65
2020/12/19 06:47:02;;;;;;;26.52;11.00;;;;;;;14.94;57.89;155043.89;1801410;78;21230;-65
2020/12/19 06:49:37;;;;;;;23.73;10.45;;;;;;;14.98;57.70;155054.44;1798968;79;21182;-65
2020/12/19 06:52:13;;;;;;;24.72;9.83;;;;;;;14.99;57.68;155057.06;1784264;80;21335;-65
2020/12/19 06:54:48;;;;;;;25.25;10.78;;;;;;;14.96;57.71;155049.16;1774978;80;21217;-65
2020/12/19 06:57:35;;;;;;;21.52;10.25;;;;;;;14.99;57.79;155057.06;1736849;82;21202;-65
2020/12/19 07:00:21;;;;;;;23.62;10.58;;;;;;;14.88;57.84;155029.41;1699447;83;21206;-65
2020/12/19 07:02:57;;;;;;;24.47;10.25;;;;;;;14.83;57.84;155016.28;1755083;82;21198;-65
2020/12/19 07:05:32;;;;;;;30.17;11.88;;;;;;;14.86;57.81;155024.19;1755311;82;21250;-65
2020/12/19 07:08:21;;;;;;;24.67;11.22;;;;;;;14.84;57.95;155018.91;1755247;82;21246;-67
2020/12/19 07:10:53;;;;;;;25.95;12.18;;;;;;;14.90;57.90;155033.39;1755425;81;21316;-66
2020/12/19 07:13:26;;;;;;;24.43;11.20;;;;;;;14.94;57.84;155043.89;1755762;81;21297;-66
2020/12/19 07:15:58;;;;;;;26.25;12.88;;;;;;;14.84;58.10;155017.58;1722300;81;21283;-67
2020/12/19 07:18:37;;;;;;;22.07;10.78;;;;;;;14.89;58.16;155030.75;1753258;81;21668;-72
2020/12/19 07:21:10;;;;;;;23.50;11.25;;;;;;;14.98;58.28;155054.44;1761166;81;21847;-69
2020/12/19 07:23:43;;;;;;;20.50;9.98;;;;;;;15.01;58.28;155062.34;1763329;81;21661;-70
2020/12/19 07:26:16;;;;;;;31.27;13.25;;;;;;;14.89;58.56;155032.05;1748382;81;21182;-67
2020/12/19 07:28:48;;;;;;;30.57;13.08;;;;;;;14.89;58.62;155030.75;1747139;82;21306;-69
2020/12/19 07:31:20;;;;;;;29.15;12.85;;;;;;;15.02;58.57;155064.97;1742686;82;21180;-70
2020/12/19 07:33:54;;;;;;;29.57;14.15;;;;;;;15.02;58.62;155064.97;1741870;82;21398;-68
2020/12/19 07:36:26;;;;;;;31.93;13.80;;;;;;;15.00;58.72;155059.70;1745450;81;21344;-67
2020/12/19 07:39:01;;;;;;;30.88;13.03;;;;;;;15.13;58.50;155095.22;1757430;81;21327;-69
2020/12/19 07:41:34;;;;;;;27.80;12.90;;;;;;;15.07;58.74;155079.45;1723886;82;21695;-66
2020/12/19 07:44:19;;;;;;;28.47;13.30;;;;;;;15.08;58.79;155080.75;1773995;80;21312;-67
2020/12/19 07:46:58;;;;;;;29.00;13.48;;;;;;;15.19;58.83;155109.70;1782582;79;21151;-68
2020/12/19 07:49:35;;;;;;;30.62;13.55;;;;;;;15.34;58.69;155150.55;1781035;79;21308;-65
2020/12/19 07:52:23;;;;;;;30.55;12.30;;;;;;;15.22;58.71;155117.61;1783698;78;21265;-71
2020/12/19 07:55:06;;;;;;;25.13;11.93;;;;;;;15.23;58.92;155120.25;1783014;79;21323;-69
2020/12/19 07:57:57;;;;;;;28.85;13.50;;;;;;;15.27;58.91;155130.84;1784375;78;21320;-68
2020/12/19 08:00:58;;;;;;;34.95;14.87;;;;;;;15.32;58.60;155145.33;1788995;78;22063;-74
2020/12/19 08:03:43;;;;;;;29.63;12.63;;;;;;;15.48;58.35;155187.42;1774289;79;21361;-66
2020/12/19 08:06:42;;;;;;;30.12;12.10;;;;;;;15.45;58.63;155179.50;1783078;78;21376;-70
2020/12/19 08:09:35;;;;;;;25.52;11.88;;;;;;;15.54;58.59;155203.25;1781656;78;21903;-63
2020/12/19 08:12:08;;;;;;;28.50;12.25;;;;;;;15.61;58.66;155221.66;1780565;78;21408;-63
2020/12/19 08:14:55;;;;;;;28.77;12.98;;;;;;;15.70;58.48;155245.34;1768106;80;21214;-66
2020/12/19 08:17:52;;;;;;;28.83;12.60;;;;;;;15.68;58.19;155241.42;1781622;78;21713;-66
2020/12/19 08:20:35;;;;;;;41.68;18.27;;;;;;;15.50;58.23;155194.03;1783052;78;22001;-67
2020/12/19 08:23:08;;;;;;;29.42;13.85;;;;;;;15.45;58.43;155180.84;1782920;78;21380;-64
2020/12/19 08:25:55;;;;;;;29.48;13.62;;;;;;;15.44;58.44;155178.22;1783758;79;21915;-67
2020/12/19 08:28:40;;;;;;;34.48;13.80;;;;;;;15.43;58.41;155174.28;1784305;78;21950;-67
2020/12/19 08:31:21;;;;;;;35.48;14.83;;;;;;;15.59;58.40;155216.37;1783867;78;21202;-66
2020/12/19 08:33:54;;;;;;;33.50;14.03;;;;;;;15.65;58.30;155233.50;1785412;78;21186;-66
2020/12/19 08:36:27;;;;;;;32.13;13.78;;;;;;;15.69;58.35;155244.06;1783465;78;21440;-66
2020/12/19 08:39:18;;;;;;;29.75;13.30;;;;;;;15.69;58.12;155244.06;1783122;79;21312;-65
2020/12/19 08:41:51;;;;;;;34.13;12.37;;;;;;;15.67;58.22;155238.78;1797302;78;21317;-67
2020/12/19 08:44:26;;;;;;;32.85;13.38;;;;;;;15.55;58.42;155207.17;1798538;79;21333;-66
2020/12/19 08:47:05;;;;;;;32.38;12.85;;;;;;;15.51;58.45;155196.63;1799528;78;21400;-64
2020/12/19 08:49:37;;;;;;;30.02;13.00;;;;;;;15.49;58.37;155190.06;1797682;78;21231;-68
2020/12/19 08:52:10;;;;;;;34.45;14.70;;;;;;;15.52;58.50;155197.97;1798847;78;21375;-70
2020/12/19 08:55:01;;;;;;;25.88;11.73;;;;;;;15.48;58.60;155188.77;1790043;78;21220;-73
2020/12/19 08:57:33;;;;;;;28.87;13.13;;;;;;;15.64;58.64;155229.56;1798923;78;21844;-65
2020/12/19 09:00:16;;;;;;;28.02;13.03;;;;;;;15.62;58.53;155225.59;1799638;79;21666;-70
2020/12/19 09:02:51;;;;;;;31.30;14.35;;;;;;;15.47;58.86;155186.13;1799895;79;21398;-73
2020/12/19 09:05:34;;;;;;;30.60;13.20;;;;;;;15.43;58.98;155175.58;1799451;78;21222;-72
2020/12/19 09:08:11;;;;;;;28.98;12.23;;;;;;;15.46;58.86;155183.50;1784234;78;21356;-70
2020/12/19 09:10:43;;;;;;;31.97;12.93;;;;;;;15.58;58.85;155215.09;1798680;78;21190;-68
2020/12/19 09:13:21;;;;;;;33.80;13.70;;;;;;;15.43;58.86;155174.28;1792090;78;21282;-72
2020/12/19 09:15:59;;;;;;;26.07;12.03;;;;;;;15.30;58.96;155138.70;1797026;78;21480;-69
2020/12/19 09:18:41;;;;;;;34.65;14.73;;;;;;;15.29;59.08;155137.41;1790969;78;21841;-75
2020/12/19 09:21:17;;;;;;;30.17;13.97;;;;;;;15.29;59.20;155136.06;1790654;79;21199;-71
2020/12/19 09:23:49;;;;;;;28.83;12.33;;;;;;;15.27;59.19;155132.14;1795761;79;21309;-73
2020/12/19 09:26:22;;;;;;;26.23;12.40;;;;;;;15.23;59.36;155120.25;1797040;79;21447;-70
2020/12/19 09:32:39;;;;;;;27.90;12.15;;;;;;;15.22;59.40;155117.61;1796086;78;21326;-62
2020/12/19 09:35:34;;;;;;;30.72;12.50;;;;;;;15.25;59.42;155125.56;1794322;78;21147;-70
2020/12/19 09:38:10;;;;;;;29.87;13.22;;;;;;;15.38;59.41;155162.44;1793970;79;21223;-66
2020/12/19 09:40:43;;;;;;;32.42;14.33;;;;;;;15.58;59.02;155215.09;1796641;78;21460;-65
2020/12/19 09:43:15;;;;;;;33.50;14.20;;;;;;;15.55;59.24;155207.17;1798025;80;21789;-63
2020/12/19 09:45:56;;;;;;;31.12;13.58;;;;;;;15.54;59.04;155204.53;1799214;78;21409;-64
2020/12/19 09:48:57;;;;;;;29.02;13.38;;;;;;;15.64;58.97;155230.86;1800031;78;21246;-65
2020/12/19 09:52:17;;;;;;;35.92;13.85;;;;;;;15.54;59.04;155204.53;1797553;79;21792;-69
2020/12/19 09:55:35;;;;;;;33.18;13.05;;;;;;;15.60;58.91;155220.36;1796311;78;21159;-64
2020/12/19 09:58:41;;;;;;;29.30;12.80;;;;;;;15.79;58.66;155269.09;1799148;79;21661;-66
2020/12/19 10:02:02;;;;;;;31.23;13.13;;;;;;;15.72;58.92;155251.97;1799227;78;21305;-66
2020/12/19 10:05:27;;;;;;;25.68;11.68;;;;;;;15.68;58.77;155240.13;1797016;78;21701;-65
2020/12/19 10:08:06;;;;;;;30.75;14.05;;;;;;;15.60;58.84;155219.03;1794072;78;21218;-65
2020/12/19 10:10:47;;;;;;;30.95;13.65;;;;;;;15.74;58.62;155257.19;1794400;78;21381;-65
2020/12/19 10:13:28;;;;;;;27.90;12.65;;;;;;;15.69;58.97;155244.06;1788912;79;21416;-69
2020/12/19 10:16:06;;;;;;;34.10;13.13;;;;;;;15.66;58.94;155234.84;1796241;78;21425;-69
2020/12/19 10:18:43;;;;;;;30.12;12.75;;;;;;;15.68;58.95;155241.42;1797550;78;21163;-65
2020/12/19 10:21:19;;;;;;;29.05;11.88;;;;;;;15.76;58.66;155261.19;1795182;78;21689;-65
2020/12/19 10:23:51;;;;;;;28.27;12.45;;;;;;;15.75;58.69;155258.53;1799665;79;21171;-66
2020/12/19 10:26:25;;;;;;;28.07;12.15;;;;;;;15.62;58.77;155225.59;1793918;79;21865;-67
2020/12/19 10:28:58;;;;;;;23.02;11.08;;;;;;;15.81;58.82;155275.66;1774446;80;21374;-66
2020/12/19 10:31:30;;;;;;;27.70;11.78;;;;;;;15.80;58.40;155273.03;1791095;79;21340;-64
2020/12/19 10:34:03;;;;;;;25.68;12.55;;;;;;;15.86;58.30;155287.52;1799423;79;21391;-67
2020/12/19 10:36:35;;;;;;;30.55;12.25;;;;;;;15.75;58.58;155258.53;1799140;79;21337;-66
2020/12/19 10:39:08;;;;;;;27.98;12.20;;;;;;;15.46;59.17;155183.50;1804206;79;21832;-65
2020/12/19 10:41:41;;;;;;;32.03;13.58;;;;;;;15.63;58.88;155228.23;1790178;80;21438;-66
2020/12/19 10:44:13;;;;;;;22.58;11.80;;;;;;;15.49;59.24;155190.06;1799386;79;21700;-68
2020/12/19 10:46:46;;;;;;;26.12;12.80;;;;;;;15.71;58.92;155249.33;1795700;79;21338;-68
2020/12/19 10:49:19;;;;;;;32.28;13.55;;;;;;;15.40;59.56;155167.66;1799311;79;21246;-74
2020/12/19 10:51:52;;;;;;;31.40;14.13;;;;;;;15.25;59.93;155126.86;1793429;78;21302;-67
2020/12/19 10:54:24;;;;;;;28.35;12.00;;;;;;;15.26;59.91;155128.20;1791409;79;21194;-64
2020/12/19 10:56:59;;;;;;;29.55;13.25;;;;;;;15.34;59.86;155149.25;1796248;79;21829;-64
2020/12/19 10:59:32;;;;;;;25.72;12.28;;;;;;;15.39;59.67;155163.73;1774061;80;21335;-66
2020/12/19 11:02:04;;;;;;;33.92;13.80;;;;;;;15.10;60.27;155087.36;1788853;79;21338;-65
2020/12/19 11:04:36;;;;;;;30.92;13.72;;;;;;;15.24;59.90;155124.17;1782056;80;21730;-71
2020/12/19 11:07:09;;;;;;;29.20;13.20;;;;;;;15.33;60.08;155147.95;1778637;80;21194;-72
2020/12/19 11:09:41;;;;;;;30.05;12.88;;;;;;;15.36;59.93;155155.81;1804626;78;21322;-73
2020/12/19 11:12:14;;;;;;;30.27;13.43;;;;;;;15.30;60.06;155140.05;1800420;79;21312;-71
2020/12/19 11:14:47;;;;;;;33.80;13.65;;;;;;;15.43;59.93;155174.28;1800432;79;21317;-70
2020/12/19 11:17:20;;;;;;;28.50;13.25;;;;;;;15.40;59.96;155167.66;1799802;79;21198;-68
2020/12/19 11:19:53;;;;;;;32.17;14.78;;;;;;;15.38;60.12;155159.80;1799922;80;21376;-70
2020/12/19 11:22:25;;;;;;;33.42;13.48;;;;;;;15.32;60.29;155145.33;1799972;78;21407;-70
2020/12/19 11:24:58;;;;;;;31.48;13.75;;;;;;;15.37;60.15;155158.47;1799669;79;21371;-75
2020/12/19 11:27:32;;;;;;;33.28;14.05;;;;;;;15.40;60.26;155167.66;1800505;79;21800;-72
2020/12/19 11:30:05;;;;;;;36.28;14.93;;;;;;;15.34;60.29;155150.55;1798222;79;21670;-72
2020/12/19 11:32:40;;;;;;;32.63;15.50;;;;;;;15.35;60.17;155151.89;1798248;78;21399;-72
2020/12/19 11:35:12;;;;;;;34.53;16.42;;;;;;;15.85;59.36;155284.88;1758631;80;21380;-71
2020/12/19 11:37:44;;;;;;;36.23;16.23;;;;;;;15.36;59.93;155154.53;1799871;80;21309;-72
2020/12/19 11:40:17;;;;;;;30.75;13.10;;;;;;;15.53;60.09;155200.61;1799564;79;21911;-71
2020/12/19 11:42:49;;;;;;;34.00;14.70;;;;;;;15.49;60.03;155190.06;1797864;79;21879;-70
2020/12/19 11:45:23;;;;;;;30.95;13.75;;;;;;;15.54;59.83;155204.53;1797341;80;21309;-71
2020/12/19 11:47:56;;;;;;;36.53;13.55;;;;;;;15.50;59.87;155194.03;1797562;80;21233;-71
2020/12/19 11:50:28;;;;;;;30.05;13.65;;;;;;;15.54;59.85;155204.53;1797819;79;21298;-70
2020/12/19 11:53:01;;;;;;;36.80;14.68;;;;;;;15.46;59.82;155182.14;1792125;79;21296;-71